KPIB/PIB METAR and TAF weather

Enter ICAO airport designator
Station Type Date Time Source
KPIB METAR 2021/10/20 04:56 UTC NOAA

KPIB 200456Z AUTO 03003KT 10SM BKN035 16/14 A3018 RMK AO2 SLP219 T01560144


Station Type Date Time Source
KPIB Decoded METAR 2021/10/20 04:56 UTC NOAA

Hattiesburg/Laurel, Hattiesburg-Laurel Regional Airport, MS, United States (KPIB) 31-28N 089-20W
Oct 20, 2021 - 12:56 AM EDT / 2021.10.20 0456 UTC
Wind: from the NNE (030 degrees) at 3 MPH (3 KT):0
Visibility: 10 mile(s):0
Sky conditions: mostly cloudy
Temperature: 60.1 F (15.6 C)
Dew Point: 57.9 F (14.4 C)
Relative Humidity: 92%
Pressure (altimeter): 30.18 in. Hg (1022 hPa)
ob: KPIB 200456Z AUTO 03003KT 10SM BKN035 16/14 A3018 RMK AO2 SLP219 T01560144
cycle: 5

Station Type Date Time Source
KPIB TAF 2021/10/19 18:24 UTC NOAA

TAF KPIB 191721Z 1918/2018 12004KT P6SM SCT200
FM200600 12004KT P6SM VCSH BKN025 OVC060

Example: see airport list